createdAt,value
2023-04-29T00:01:00.676Z,63.10
2023-04-29T00:06:02.971Z,62.91
2023-04-29T00:11:05.429Z,63.02
2023-04-29T00:16:08.811Z,63.32
2023-04-29T00:21:11.516Z,62.69
2023-04-29T00:26:13.360Z,61.71
2023-04-29T00:31:17.528Z,62.31
2023-04-29T00:36:19.617Z,62.57
2023-04-29T00:41:22.228Z,63.78
2023-04-29T00:46:24.308Z,63.24
2023-04-29T00:51:27.212Z,63.50
2023-04-29T00:56:32.366Z,64.30
2023-04-29T01:01:35.957Z,64.39
2023-04-29T01:06:53.189Z,64.39
2023-04-29T01:12:08.510Z,64.28
2023-04-29T01:17:15.718Z,64.45
2023-04-29T01:22:18.950Z,64.60
2023-04-29T01:27:32.177Z,64.49
2023-04-29T01:33:01.508Z,64.07
2023-04-29T01:38:29.684Z,64.55
2023-04-29T01:43:34.541Z,64.74
2023-04-29T01:48:54.819Z,64.19
2023-04-29T01:53:57.427Z,63.12
2023-04-29T01:58:59.746Z,64.80
2023-04-29T02:04:20.673Z,65.68
2023-04-29T02:09:22.708Z,65.92
2023-04-29T02:14:29.298Z,65.76
2023-04-29T02:19:31.784Z,65.66
2023-04-29T02:24:34.385Z,65.56
2023-04-29T02:29:37.196Z,67.78
2023-04-29T02:34:40.083Z,68.07
2023-04-29T02:39:42.062Z,67.00
2023-04-29T02:44:44.570Z,67.65
2023-04-29T02:49:47.170Z,66.91
2023-04-29T02:54:49.463Z,67.54
2023-04-29T02:59:51.614Z,66.80
2023-04-29T03:04:53.947Z,66.64
2023-04-29T03:09:56.387Z,68.06
2023-04-29T03:14:58.832Z,68.42
2023-04-29T03:20:00.852Z,69.27
2023-04-29T03:25:02.921Z,67.30
2023-04-29T03:30:10.445Z,68.75
2023-04-29T03:35:18.063Z,68.83
2023-04-29T03:40:37.569Z,68.27
2023-04-29T03:45:39.817Z,69.56
2023-04-29T03:50:42.344Z,69.69
2023-04-29T03:55:44.970Z,69.18
2023-04-29T04:00:46.893Z,68.32
2023-04-29T04:05:52.721Z,68.63
2023-04-29T04:10:54.591Z,69.37
2023-04-29T04:16:06.558Z,69.53
2023-04-29T04:21:09.987Z,69.73
2023-04-29T04:26:13.128Z,68.86
2023-04-29T04:31:32.443Z,68.64
2023-04-29T04:36:34.676Z,68.00
2023-04-29T04:41:36.655Z,67.74
2023-04-29T04:46:39.209Z,67.24
2023-04-29T04:51:47.486Z,66.35
2023-04-29T04:56:52.302Z,65.74
2023-04-29T05:01:55.527Z,65.28
2023-04-29T05:06:58.714Z,65.09
2023-04-29T05:12:02.988Z,65.02
2023-04-29T05:17:10.411Z,65.17
2023-04-29T05:22:12.855Z,65.07
2023-04-29T05:27:16.609Z,65.16
2023-04-29T05:32:18.801Z,65.33
2023-04-29T05:37:21.005Z,65.23
2023-04-29T05:42:45.700Z,64.85
2023-04-29T05:47:48.497Z,64.80
2023-04-29T05:52:52.044Z,64.38
2023-04-29T05:57:54.754Z,63.99
2023-04-29T06:02:59.189Z,63.65
2023-04-29T06:08:03.997Z,63.70
2023-04-29T06:13:20.637Z,64.26
2023-04-29T06:18:24.365Z,64.11
2023-04-29T06:23:26.755Z,64.23
2023-04-29T06:28:30.133Z,64.10
2023-04-29T06:33:34.120Z,64.19
2023-04-29T06:38:36.644Z,64.14
2023-04-29T06:44:01.990Z,63.55
2023-04-29T06:49:30.349Z,63.60
2023-04-29T06:54:32.394Z,63.12
2023-04-29T06:59:34.867Z,62.42
2023-04-29T07:04:39.396Z,61.87
2023-04-29T07:09:41.681Z,61.62
2023-04-29T07:14:43.588Z,61.41
2023-04-29T07:19:47.369Z,61.20
2023-04-29T07:24:49.379Z,60.18
2023-04-29T07:29:51.692Z,59.83
2023-04-29T07:34:53.967Z,59.74
2023-04-29T07:39:56.555Z,59.66
2023-04-29T07:44:59.120Z,59.10
2023-04-29T07:50:01.660Z,60.49
2023-04-29T07:55:03.960Z,61.36
2023-04-29T08:00:07.672Z,61.15
2023-04-29T08:05:16.815Z,61.50
2023-04-29T08:10:22.889Z,62.78
2023-04-29T08:15:25.016Z,62.16
2023-04-29T08:20:29.077Z,60.69
2023-04-29T08:25:31.013Z,58.72
2023-04-29T08:30:33.676Z,59.50
2023-04-29T08:35:38.821Z,58.49
2023-04-29T08:40:43.780Z,57.78
2023-04-29T08:45:48.843Z,56.63
2023-04-29T08:50:50.957Z,56.49
2023-04-29T08:55:55.475Z,56.64
2023-04-29T09:00:57.644Z,56.69
2023-04-29T09:06:02.109Z,56.38
2023-04-29T09:11:05.496Z,55.95
2023-04-29T09:16:12.045Z,56.01
2023-04-29T09:21:21.141Z,56.20
2023-04-29T09:26:25.124Z,55.87
2023-04-29T09:31:28.208Z,55.88
2023-04-29T09:36:38.584Z,56.25
2023-04-29T09:41:43.696Z,56.81
2023-04-29T09:46:57.504Z,57.72
2023-04-29T09:52:05.249Z,58.39
2023-04-29T09:57:09.237Z,58.81
